Terminal Aerodrome Forecast
Issued by NWS

Home | Current Version | Previous Version | Text Only | Print | Product List | Glossary On
Versions: 1 2 3 4 5 6 7 8 9 10 11 12 13 14 15 16 17 18 19 20 21
000
FTUS41 KPBZ 180500
TAFFKL
TAF
KFKL 180528Z 1806/1906 13010KT P6SM SCT250
     FM181500 20008KT P6SM SCT080
     FM182000 27008KT P6SM SCT050
     FM182200 30007KT P6SM BKN040
      AMD LTD TO CLD VIS AND WIND=

USA.gov is the U.S. government's official web portal to all federal, state and local government web resources and services.